• Join FlightAware (Why Join?)
  • Login
  • US Flag 
09:27AM EDT


 

Airport Tracker/Info


-or-


 

Live Flight TrackerFlight Track Log ✈ N449ND ✈ 13-Feb-2014 ✈ KPBI - KFPR

Flight Track Log - Related Links

Times and Time Zones

All times are in EST time to prevent confusion due to time zone crossing. See the N449ND flight status page for this flight to view local times or setup timezone preferences in your user account.

Time Position Orientation Groundspeed Altitude Reporting Facility
EST Latitude Longitude Course Direction KTS MPH feet Rate Location/Type
10:03PM 26.7640 -80.1261 341° North  Level FlightAware Approximate
10:04PM 26.7775 -80.1311 341° North  Level FlightAware Approximate
10:05PM 26.7910 -80.1362 341° North  Level FlightAware Approximate
10:06PM 26.7864 -80.1333 North  Level FlightAware Approximate
10:06PM 26.8678 -80.1728 342° North 98 113 4,000  Level Miami Center
10:07PM 26.8006 -80.1333 360° North  Level FlightAware Approximate
10:07PM 26.8925 -80.1828 340° North 87 100 4,000  Level Miami Center
10:08PM 26.8148 -80.1333 360° North  Level FlightAware Approximate
10:08PM 26.9156 -80.1881 348° North 87 100 4,000  Level Miami Center
10:09PM 26.8284 -80.1376 342° North  Level FlightAware Approximate
10:09PM 26.9403 -80.1981 340° North 87 100 4,100  Level Miami Center
10:10PM 26.8419 -80.1426 342° North  Level FlightAware Approximate
10:10PM 26.9672 -80.2058 346° North 92 106 4,000  Level Miami Center
10:11PM 26.9858 -80.2111 346° North 92 106 4,000  Level Miami Center
10:12PM 27.0128 -80.2211 342° North 99 114 4,000  Level Miami Center
10:13PM 27.0378 -80.2267 349° North 93 107 4,000  Level Miami Center
10:14PM 27.0625 -80.2367 340° North 87 100 4,000  Level Miami Center
10:15PM 27.0853 -80.2442 344° North 87 100 4,000  Level Miami Center
10:16PM 27.1083 -80.2494 348° North 93 107 4,000  Level Miami Center
10:17PM 27.1353 -80.2572 346° North 88 101 4,000  Level Miami Center
10:18PM 27.1600 -80.2650 344° North 88 101 4,000  Level Miami Center
10:19PM 27.1850 -80.2728 345° North 88 101 4,000  Level Miami Center
10:20PM 27.2056 -80.2803 342° North 88 101 4,000  Level Miami Center
10:21PM 27.2306 -80.2881 345° North 88 101 4,000  Level Miami Center
10:22PM 27.2553 -80.2983 340° North 88 101 4,000  Level Miami Center
10:23PM 27.2747 -80.2731 49° Northeast 81 93 4,100  Climbing Miami Center
10:24PM 27.2939 -80.2528 43° Northeast 89 102 4,000 -60 Descending Miami Center
10:25PM 27.3111 -80.2322 47° Northeast 95 109 4,000  Level Miami Center
10:26PM 27.3328 -80.2069 46° Northeast 95 109 4,000 -300 Level Miami Center
10:27PM 27.3561 -80.1889 34° Northeast 95 109 3,400 -600 Descending Miami Center